sensor_id;sensor_type;location;lat;lon;timestamp;temperature;humidity
21037;DHT22;10677;50.942;4.028;2023-06-22T00:02:13;21.40;99.90
21037;DHT22;10677;50.942;4.028;2023-06-22T00:04:39;21.10;99.90
21037;DHT22;10677;50.942;4.028;2023-06-22T00:07:05;21.30;99.90
21037;DHT22;10677;50.942;4.028;2023-06-22T00:09:31;21.40;99.90
21037;DHT22;10677;50.942;4.028;2023-06-22T00:11:57;21.60;99.90
21037;DHT22;10677;50.942;4.028;2023-06-22T00:14:23;21.50;99.90
21037;DHT22;10677;50.942;4.028;2023-06-22T00:16:49;21.50;99.90
21037;DHT22;10677;50.942;4.028;2023-06-22T00:19:17;21.50;99.90
21037;DHT22;10677;50.942;4.028;2023-06-22T00:21:44;21.40;99.90
21037;DHT22;10677;50.942;4.028;2023-06-22T00:24:12;21.30;99.90
21037;DHT22;10677;50.942;4.028;2023-06-22T00:26:38;21.30;99.90
21037;DHT22;10677;50.942;4.028;2023-06-22T00:29:04;21.20;99.90
21037;DHT22;10677;50.942;4.028;2023-06-22T00:31:30;21.20;99.90
21037;DHT22;10677;50.942;4.028;2023-06-22T00:33:55;21.20;99.90
21037;DHT22;10677;50.942;4.028;2023-06-22T00:36:21;21.10;99.90
21037;DHT22;10677;50.942;4.028;2023-06-22T00:38:50;20.90;99.90
21037;DHT22;10677;50.942;4.028;2023-06-22T00:41:17;20.90;99.90
21037;DHT22;10677;50.942;4.028;2023-06-22T00:43:42;21.00;99.90
21037;DHT22;10677;50.942;4.028;2023-06-22T00:46:08;21.10;99.90
21037;DHT22;10677;50.942;4.028;2023-06-22T00:48:34;21.20;99.90
21037;DHT22;10677;50.942;4.028;2023-06-22T00:51:02;21.00;99.90
21037;DHT22;10677;50.942;4.028;2023-06-22T00:53:28;20.60;99.90
21037;DHT22;10677;50.942;4.028;2023-06-22T00:55:54;20.50;99.90
21037;DHT22;10677;50.942;4.028;2023-06-22T00:58:21;20.50;99.90
21037;DHT22;10677;50.942;4.028;2023-06-22T01:00:47;20.70;99.90
21037;DHT22;10677;50.942;4.028;2023-06-22T01:03:14;20.80;99.90
21037;DHT22;10677;50.942;4.028;2023-06-22T01:05:42;21.00;99.90
21037;DHT22;10677;50.942;4.028;2023-06-22T01:08:23;21.00;99.90
21037;DHT22;10677;50.942;4.028;2023-06-22T01:11:06;20.90;99.90
21037;DHT22;10677;50.942;4.028;2023-06-22T01:18:36;20.70;99.90
21037;DHT22;10677;50.942;4.028;2023-06-22T01:21:06;20.70;99.90
21037;DHT22;10677;50.942;4.028;2023-06-22T01:23:56;20.60;99.90
21037;DHT22;10677;50.942;4.028;2023-06-22T01:26:43;20.60;99.90
21037;DHT22;10677;50.942;4.028;2023-06-22T01:29:13;20.40;99.90
21037;DHT22;10677;50.942;4.028;2023-06-22T01:31:40;20.40;99.90
21037;DHT22;10677;50.942;4.028;2023-06-22T01:34:07;20.40;99.90
21037;DHT22;10677;50.942;4.028;2023-06-22T01:36:33;20.40;99.90
21037;DHT22;10677;50.942;4.028;2023-06-22T01:39:00;20.40;99.90
21037;DHT22;10677;50.942;4.028;2023-06-22T01:41:28;20.30;99.90
21037;DHT22;10677;50.942;4.028;2023-06-22T01:43:56;20.40;99.90
21037;DHT22;10677;50.942;4.028;2023-06-22T01:46:22;20.40;99.90
21037;DHT22;10677;50.942;4.028;2023-06-22T01:48:49;20.40;99.90
21037;DHT22;10677;50.942;4.028;2023-06-22T01:51:15;20.40;99.90
21037;DHT22;10677;50.942;4.028;2023-06-22T01:53:40;20.40;99.90
21037;DHT22;10677;50.942;4.028;2023-06-22T01:56:06;20.40;99.90
21037;DHT22;10677;50.942;4.028;2023-06-22T01:58:33;20.40;99.90
21037;DHT22;10677;50.942;4.028;2023-06-22T02:01:09;20.10;99.90
21037;DHT22;10677;50.942;4.028;2023-06-22T02:03:38;20.10;99.90
21037;DHT22;10677;50.942;4.028;2023-06-22T02:06:10;20.20;99.90
21037;DHT22;10677;50.942;4.028;2023-06-22T02:08:55;20.30;99.90
21037;DHT22;10677;50.942;4.028;2023-06-22T02:11:22;20.30;99.90
21037;DHT22;10677;50.942;4.028;2023-06-22T02:13:48;20.20;99.90
21037;DHT22;10677;50.942;4.028;2023-06-22T02:16:15;20.10;99.90
21037;DHT22;10677;50.942;4.028;2023-06-22T02:18:49;20.10;99.90
21037;DHT22;10677;50.942;4.028;2023-06-22T02:21:19;20.20;99.90
21037;DHT22;10677;50.942;4.028;2023-06-22T02:23:45;20.10;99.90
21037;DHT22;10677;50.942;4.028;2023-06-22T02:26:11;20.10;99.90
21037;DHT22;10677;50.942;4.028;2023-06-22T02:28:37;19.90;99.90
21037;DHT22;10677;50.942;4.028;2023-06-22T02:31:02;19.40;99.90
21037;DHT22;10677;50.942;4.028;2023-06-22T02:33:28;19.20;99.90
21037;DHT22;10677;50.942;4.028;2023-06-22T02:35:54;19.20;99.90
21037;DHT22;10677;50.942;4.028;2023-06-22T02:38:22;19.30;99.90
21037;DHT22;10677;50.942;4.028;2023-06-22T02:40:50;19.50;99.90
21037;DHT22;10677;50.942;4.028;2023-06-22T02:43:16;19.60;99.90
21037;DHT22;10677;50.942;4.028;2023-06-22T02:45:42;19.80;99.90
21037;DHT22;10677;50.942;4.028;2023-06-22T02:48:07;19.60;99.90
21037;DHT22;10677;50.942;4.028;2023-06-22T02:50:33;19.30;99.90
21037;DHT22;10677;50.942;4.028;2023-06-22T02:52:59;19.30;99.90
21037;DHT22;10677;50.942;4.028;2023-06-22T02:55:24;19.50;99.90
21037;DHT22;10677;50.942;4.028;2023-06-22T02:57:50;19.60;99.90
21037;DHT22;10677;50.942;4.028;2023-06-22T03:00:19;19.60;99.90
21037;DHT22;10677;50.942;4.028;2023-06-22T03:02:49;19.60;99.90
21037;DHT22;10677;50.942;4.028;2023-06-22T03:05:15;19.50;99.90
21037;DHT22;10677;50.942;4.028;2023-06-22T03:07:46;19.50;99.90
21037;DHT22;10677;50.942;4.028;2023-06-22T03:10:13;19.40;99.90
21037;DHT22;10677;50.942;4.028;2023-06-22T03:12:39;19.40;99.90
21037;DHT22;10677;50.942;4.028;2023-06-22T03:15:09;19.50;99.90
21037;DHT22;10677;50.942;4.028;2023-06-22T03:17:36;19.50;99.90
21037;DHT22;10677;50.942;4.028;2023-06-22T03:20:03;19.20;99.90
21037;DHT22;10677;50.942;4.028;2023-06-22T03:22:35;19.00;99.90
21037;DHT22;10677;50.942;4.028;2023-06-22T03:25:01;19.10;99.90
21037;DHT22;10677;50.942;4.028;2023-06-22T03:27:27;19.40;99.90
21037;DHT22;10677;50.942;4.028;2023-06-22T03:29:53;19.60;99.90
21037;DHT22;10677;50.942;4.028;2023-06-22T03:32:18;19.60;99.90
21037;DHT22;10677;50.942;4.028;2023-06-22T03:34:44;19.60;99.90
21037;DHT22;10677;50.942;4.028;2023-06-22T03:37:13;19.60;99.90
21037;DHT22;10677;50.942;4.028;2023-06-22T03:39:40;19.50;99.90
21037;DHT22;10677;50.942;4.028;2023-06-22T03:42:06;19.50;99.90
21037;DHT22;10677;50.942;4.028;2023-06-22T03:44:32;19.50;99.90
21037;DHT22;10677;50.942;4.028;2023-06-22T03:46:57;19.50;99.90
21037;DHT22;10677;50.942;4.028;2023-06-22T03:49:23;19.50;99.90
21037;DHT22;10677;50.942;4.028;2023-06-22T03:51:49;19.40;99.90
21037;DHT22;10677;50.942;4.028;2023-06-22T03:54:14;19.50;99.90
21037;DHT22;10677;50.942;4.028;2023-06-22T03:56:40;19.40;99.90
21037;DHT22;10677;50.942;4.028;2023-06-22T03:59:05;19.60;99.90
21037;DHT22;10677;50.942;4.028;2023-06-22T04:01:31;19.50;99.90
21037;DHT22;10677;50.942;4.028;2023-06-22T04:03:57;19.60;99.90
21037;DHT22;10677;50.942;4.028;2023-06-22T04:06:22;19.60;99.90
21037;DHT22;10677;50.942;4.028;2023-06-22T04:08:48;19.60;99.90
21037;DHT22;10677;50.942;4.028;2023-06-22T04:11:17;19.50;99.90
21037;DHT22;10677;50.942;4.028;2023-06-22T04:13:43;19.50;99.90
21037;DHT22;10677;50.942;4.028;2023-06-22T04:16:09;19.50;99.90
21037;DHT22;10677;50.942;4.028;2023-06-22T04:18:35;19.40;99.90
21037;DHT22;10677;50.942;4.028;2023-06-22T04:21:01;19.50;99.90
21037;DHT22;10677;50.942;4.028;2023-06-22T04:23:26;19.60;99.90
21037;DHT22;10677;50.942;4.028;2023-06-22T04:25:52;19.60;99.90
21037;DHT22;10677;50.942;4.028;2023-06-22T04:28:18;19.50;99.90
21037;DHT22;10677;50.942;4.028;2023-06-22T04:30:44;19.40;99.90
21037;DHT22;10677;50.942;4.028;2023-06-22T04:33:16;19.50;99.90
21037;DHT22;10677;50.942;4.028;2023-06-22T04:35:41;19.60;99.90
21037;DHT22;10677;50.942;4.028;2023-06-22T04:38:07;19.50;99.90
21037;DHT22;10677;50.942;4.028;2023-06-22T04:40:34;19.30;99.90
21037;DHT22;10677;50.942;4.028;2023-06-22T04:42:59;19.20;99.90
21037;DHT22;10677;50.942;4.028;2023-06-22T04:45:28;19.20;99.90
21037;DHT22;10677;50.942;4.028;2023-06-22T04:47:57;19.40;99.90
21037;DHT22;10677;50.942;4.028;2023-06-22T04:50:23;19.70;99.90
21037;DHT22;10677;50.942;4.028;2023-06-22T04:52:49;19.90;99.90
21037;DHT22;10677;50.942;4.028;2023-06-22T04:55:15;20.00;99.90
21037;DHT22;10677;50.942;4.028;2023-06-22T04:57:47;20.20;99.90
21037;DHT22;10677;50.942;4.028;2023-06-22T05:00:23;20.20;99.90
21037;DHT22;10677;50.942;4.028;2023-06-22T05:02:49;20.30;99.90
21037;DHT22;10677;50.942;4.028;2023-06-22T05:05:15;20.40;99.90
21037;DHT22;10677;50.942;4.028;2023-06-22T05:07:46;20.30;99.90
21037;DHT22;10677;50.942;4.028;2023-06-22T05:10:14;20.50;99.90
21037;DHT22;10677;50.942;4.028;2023-06-22T05:12:40;20.60;99.90
21037;DHT22;10677;50.942;4.028;2023-06-22T05:15:09;20.70;99.90
21037;DHT22;10677;50.942;4.028;2023-06-22T05:17:36;20.80;99.90
21037;DHT22;10677;50.942;4.028;2023-06-22T05:20:02;20.80;99.90
21037;DHT22;10677;50.942;4.028;2023-06-22T05:22:31;20.70;99.90
21037;DHT22;10677;50.942;4.028;2023-06-22T05:24:57;20.60;99.90
21037;DHT22;10677;50.942;4.028;2023-06-22T05:27:23;20.30;99.90
21037;DHT22;10677;50.942;4.028;2023-06-22T05:29:48;20.30;99.90
21037;DHT22;10677;50.942;4.028;2023-06-22T05:32:14;20.10;99.90
21037;DHT22;10677;50.942;4.028;2023-06-22T05:34:40;20.30;99.90
21037;DHT22;10677;50.942;4.028;2023-06-22T05:37:05;20.70;99.90
21037;DHT22;10677;50.942;4.028;2023-06-22T05:39:31;21.00;99.90
21037;DHT22;10677;50.942;4.028;2023-06-22T05:41:57;21.20;99.90
21037;DHT22;10677;50.942;4.028;2023-06-22T05:44:23;21.00;99.90
21037;DHT22;10677;50.942;4.028;2023-06-22T05:46:48;20.80;99.90
21037;DHT22;10677;50.942;4.028;2023-06-22T05:49:14;20.60;99.90
21037;DHT22;10677;50.942;4.028;2023-06-22T05:51:41;20.40;99.90
21037;DHT22;10677;50.942;4.028;2023-06-22T05:54:07;20.50;99.90
21037;DHT22;10677;50.942;4.028;2023-06-22T05:56:34;20.60;99.90
21037;DHT22;10677;50.942;4.028;2023-06-22T05:59:00;20.90;99.90
21037;DHT22;10677;50.942;4.028;2023-06-22T06:01:25;21.30;99.90
21037;DHT22;10677;50.942;4.028;2023-06-22T06:03:51;21.70;99.90
21037;DHT22;10677;50.942;4.028;2023-06-22T06:06:18;21.90;99.90
21037;DHT22;10677;50.942;4.028;2023-06-22T06:08:46;21.90;99.90
21037;DHT22;10677;50.942;4.028;2023-06-22T06:11:12;22.00;99.90
21037;DHT22;10677;50.942;4.028;2023-06-22T06:13:38;22.10;99.90
21037;DHT22;10677;50.942;4.028;2023-06-22T06:16:03;22.10;99.90
21037;DHT22;10677;50.942;4.028;2023-06-22T06:18:29;22.10;99.90
21037;DHT22;10677;50.942;4.028;2023-06-22T06:20:55;22.10;99.90
21037;DHT22;10677;50.942;4.028;2023-06-22T06:23:20;22.10;99.90
21037;DHT22;10677;50.942;4.028;2023-06-22T06:25:46;22.00;99.90
21037;DHT22;10677;50.942;4.028;2023-06-22T06:28:12;22.20;99.90
21037;DHT22;10677;50.942;4.028;2023-06-22T06:30:37;21.80;99.90
21037;DHT22;10677;50.942;4.028;2023-06-22T06:33:03;21.60;99.90
21037;DHT22;10677;50.942;4.028;2023-06-22T06:35:37;21.80;99.90
21037;DHT22;10677;50.942;4.028;2023-06-22T06:38:03;21.80;99.90
21037;DHT22;10677;50.942;4.028;2023-06-22T06:40:29;22.00;99.90
21037;DHT22;10677;50.942;4.028;2023-06-22T06:42:55;22.20;99.90
21037;DHT22;10677;50.942;4.028;2023-06-22T06:45:23;22.30;99.90
21037;DHT22;10677;50.942;4.028;2023-06-22T06:47:50;22.30;99.90
21037;DHT22;10677;50.942;4.028;2023-06-22T06:50:17;22.10;99.90
21037;DHT22;10677;50.942;4.028;2023-06-22T06:52:43;22.10;99.90
21037;DHT22;10677;50.942;4.028;2023-06-22T06:55:09;21.90;99.90
21037;DHT22;10677;50.942;4.028;2023-06-22T06:57:39;22.00;99.90
21037;DHT22;10677;50.942;4.028;2023-06-22T07:00:10;21.90;99.90
21037;DHT22;10677;50.942;4.028;2023-06-22T07:02:47;21.60;99.90
21037;DHT22;10677;50.942;4.028;2023-06-22T07:05:13;21.50;99.90
21037;DHT22;10677;50.942;4.028;2023-06-22T07:07:39;21.50;99.90
21037;DHT22;10677;50.942;4.028;2023-06-22T07:10:44;21.40;99.90
21037;DHT22;10677;50.942;4.028;2023-06-22T07:13:09;21.40;99.90
21037;DHT22;10677;50.942;4.028;2023-06-22T07:15:35;21.60;99.90
21037;DHT22;10677;50.942;4.028;2023-06-22T07:18:01;21.50;99.90
21037;DHT22;10677;50.942;4.028;2023-06-22T07:20:27;21.40;99.90
21037;DHT22;10677;50.942;4.028;2023-06-22T07:22:52;21.50;99.90
21037;DHT22;10677;50.942;4.028;2023-06-22T07:25:18;21.50;99.90
21037;DHT22;10677;50.942;4.028;2023-06-22T07:28:02;21.70;99.90
21037;DHT22;10677;50.942;4.028;2023-06-22T07:30:29;21.80;99.90
21037;DHT22;10677;50.942;4.028;2023-06-22T07:32:56;21.90;99.90
21037;DHT22;10677;50.942;4.028;2023-06-22T07:35:22;21.90;99.90
21037;DHT22;10677;50.942;4.028;2023-06-22T07:37:47;21.90;99.90
21037;DHT22;10677;50.942;4.028;2023-06-22T07:40:14;21.60;99.90
21037;DHT22;10677;50.942;4.028;2023-06-22T07:42:41;21.70;99.90
21037;DHT22;10677;50.942;4.028;2023-06-22T07:45:08;21.70;99.90
21037;DHT22;10677;50.942;4.028;2023-06-22T07:47:39;21.80;99.90
21037;DHT22;10677;50.942;4.028;2023-06-22T07:50:06;22.00;99.90
21037;DHT22;10677;50.942;4.028;2023-06-22T07:52:32;21.70;99.90
21037;DHT22;10677;50.942;4.028;2023-06-22T07:54:58;21.70;99.90
21037;DHT22;10677;50.942;4.028;2023-06-22T07:57:25;21.90;99.90
21037;DHT22;10677;50.942;4.028;2023-06-22T08:00:11;22.10;99.90
21037;DHT22;10677;50.942;4.028;2023-06-22T08:02:45;22.20;99.90
21037;DHT22;10677;50.942;4.028;2023-06-22T08:05:11;22.40;99.90
21037;DHT22;10677;50.942;4.028;2023-06-22T08:07:37;22.30;99.90
21037;DHT22;10677;50.942;4.028;2023-06-22T08:10:10;22.40;99.90
21037;DHT22;10677;50.942;4.028;2023-06-22T08:12:36;22.70;99.90
21037;DHT22;10677;50.942;4.028;2023-06-22T08:15:02;22.90;99.90
21037;DHT22;10677;50.942;4.028;2023-06-22T08:17:28;23.00;99.90
21037;DHT22;10677;50.942;4.028;2023-06-22T08:19:54;22.70;99.90
21037;DHT22;10677;50.942;4.028;2023-06-22T08:22:20;22.70;99.90
21037;DHT22;10677;50.942;4.028;2023-06-22T08:24:45;22.60;99.90
21037;DHT22;10677;50.942;4.028;2023-06-22T08:27:11;22.70;99.90
21037;DHT22;10677;50.942;4.028;2023-06-22T08:29:39;22.70;99.90
21037;DHT22;10677;50.942;4.028;2023-06-22T08:32:05;22.50;99.90
21037;DHT22;10677;50.942;4.028;2023-06-22T08:34:31;22.40;99.90
21037;DHT22;10677;50.942;4.028;2023-06-22T08:36:56;22.50;99.90
21037;DHT22;10677;50.942;4.028;2023-06-22T08:39:22;22.50;99.90
21037;DHT22;10677;50.942;4.028;2023-06-22T08:41:48;22.40;99.90
21037;DHT22;10677;50.942;4.028;2023-06-22T08:44:18;22.40;99.90
21037;DHT22;10677;50.942;4.028;2023-06-22T08:46:43;22.50;99.90
21037;DHT22;10677;50.942;4.028;2023-06-22T08:49:09;22.60;99.90
21037;DHT22;10677;50.942;4.028;2023-06-22T08:51:35;22.90;99.90
21037;DHT22;10677;50.942;4.028;2023-06-22T08:54:01;22.80;99.90
21037;DHT22;10677;50.942;4.028;2023-06-22T08:56:27;22.80;99.90
21037;DHT22;10677;50.942;4.028;2023-06-22T08:58:52;22.50;99.90
21037;DHT22;10677;50.942;4.028;2023-06-22T09:01:18;22.50;99.90
21037;DHT22;10677;50.942;4.028;2023-06-22T09:03:45;22.40;99.90
21037;DHT22;10677;50.942;4.028;2023-06-22T09:06:20;22.30;99.90
21037;DHT22;10677;50.942;4.028;2023-06-22T09:08:47;22.20;99.90
21037;DHT22;10677;50.942;4.028;2023-06-22T09:11:13;22.00;99.90
21037;DHT22;10677;50.942;4.028;2023-06-22T09:13:38;21.70;99.90
21037;DHT22;10677;50.942;4.028;2023-06-22T09:16:07;21.60;99.90
21037;DHT22;10677;50.942;4.028;2023-06-22T09:18:34;21.60;99.90
21037;DHT22;10677;50.942;4.028;2023-06-22T09:21:01;21.60;99.90
21037;DHT22;10677;50.942;4.028;2023-06-22T09:23:27;21.50;99.90
21037;DHT22;10677;50.942;4.028;2023-06-22T09:25:53;21.60;99.90
21037;DHT22;10677;50.942;4.028;2023-06-22T09:28:19;21.50;99.90
21037;DHT22;10677;50.942;4.028;2023-06-22T09:30:45;21.50;99.90
21037;DHT22;10677;50.942;4.028;2023-06-22T09:33:10;21.60;99.90
21037;DHT22;10677;50.942;4.028;2023-06-22T09:35:36;21.60;99.90
21037;DHT22;10677;50.942;4.028;2023-06-22T09:38:02;21.70;99.90
21037;DHT22;10677;50.942;4.028;2023-06-22T09:40:29;21.60;99.90
21037;DHT22;10677;50.942;4.028;2023-06-22T09:42:54;21.60;99.90
21037;DHT22;10677;50.942;4.028;2023-06-22T09:45:20;21.60;99.90
21037;DHT22;10677;50.942;4.028;2023-06-22T09:47:46;21.40;99.90
21037;DHT22;10677;50.942;4.028;2023-06-22T09:50:11;21.10;99.90
21037;DHT22;10677;50.942;4.028;2023-06-22T09:52:38;21.00;99.90
21037;DHT22;10677;50.942;4.028;2023-06-22T09:55:05;21.00;99.90
21037;DHT22;10677;50.942;4.028;2023-06-22T09:57:32;20.70;99.90
21037;DHT22;10677;50.942;4.028;2023-06-22T09:59:58;20.70;99.90
21037;DHT22;10677;50.942;4.028;2023-06-22T10:02:24;20.80;99.90
21037;DHT22;10677;50.942;4.028;2023-06-22T10:08:14;20.90;99.90
21037;DHT22;10677;50.942;4.028;2023-06-22T10:10:39;21.20;99.90
21037;DHT22;10677;50.942;4.028;2023-06-22T10:13:10;21.30;99.90
21037;DHT22;10677;50.942;4.028;2023-06-22T10:15:36;21.40;99.90
21037;DHT22;10677;50.942;4.028;2023-06-22T10:18:02;21.60;99.90
21037;DHT22;10677;50.942;4.028;2023-06-22T10:20:29;21.60;99.90
21037;DHT22;10677;50.942;4.028;2023-06-22T10:22:55;21.50;99.90
21037;DHT22;10677;50.942;4.028;2023-06-22T10:25:21;21.70;99.90
21037;DHT22;10677;50.942;4.028;2023-06-22T10:27:47;21.80;99.90
21037;DHT22;10677;50.942;4.028;2023-06-22T10:30:13;21.90;99.90
21037;DHT22;10677;50.942;4.028;2023-06-22T10:32:40;21.80;99.90
21037;DHT22;10677;50.942;4.028;2023-06-22T10:35:06;21.80;99.90
21037;DHT22;10677;50.942;4.028;2023-06-22T10:37:32;21.70;99.90
21037;DHT22;10677;50.942;4.028;2023-06-22T10:39:59;21.60;99.90
21037;DHT22;10677;50.942;4.028;2023-06-22T10:42:25;21.40;99.90
21037;DHT22;10677;50.942;4.028;2023-06-22T10:44:50;21.00;99.90
21037;DHT22;10677;50.942;4.028;2023-06-22T10:47:16;20.90;99.90
21037;DHT22;10677;50.942;4.028;2023-06-22T10:49:42;20.80;99.90
21037;DHT22;10677;50.942;4.028;2023-06-22T10:52:08;20.60;99.90
21037;DHT22;10677;50.942;4.028;2023-06-22T10:54:35;20.60;99.90
21037;DHT22;10677;50.942;4.028;2023-06-22T10:57:02;20.60;99.90
21037;DHT22;10677;50.942;4.028;2023-06-22T10:59:28;20.60;99.90
21037;DHT22;10677;50.942;4.028;2023-06-22T11:01:58;20.50;99.90
21037;DHT22;10677;50.942;4.028;2023-06-22T11:04:24;20.40;99.90
21037;DHT22;10677;50.942;4.028;2023-06-22T11:06:51;20.00;99.90
21037;DHT22;10677;50.942;4.028;2023-06-22T11:09:17;19.70;99.90
21037;DHT22;10677;50.942;4.028;2023-06-22T11:11:47;19.60;99.90
21037;DHT22;10677;50.942;4.028;2023-06-22T11:14:13;19.40;99.90
21037;DHT22;10677;50.942;4.028;2023-06-22T11:16:39;19.30;99.90
21037;DHT22;10677;50.942;4.028;2023-06-22T11:19:05;19.20;99.90
21037;DHT22;10677;50.942;4.028;2023-06-22T11:21:31;19.20;99.90
21037;DHT22;10677;50.942;4.028;2023-06-22T11:23:58;19.20;99.90
21037;DHT22;10677;50.942;4.028;2023-06-22T11:26:24;19.30;99.90
21037;DHT22;10677;50.942;4.028;2023-06-22T11:28:52;19.30;99.90
21037;DHT22;10677;50.942;4.028;2023-06-22T11:31:18;19.30;99.90
21037;DHT22;10677;50.942;4.028;2023-06-22T11:33:43;19.40;99.90
21037;DHT22;10677;50.942;4.028;2023-06-22T11:36:11;19.40;99.90
21037;DHT22;10677;50.942;4.028;2023-06-22T11:38:37;19.30;99.90
21037;DHT22;10677;50.942;4.028;2023-06-22T11:41:06;19.10;99.90
21037;DHT22;10677;50.942;4.028;2023-06-22T11:43:36;19.20;99.90
21037;DHT22;10677;50.942;4.028;2023-06-22T11:46:03;19.30;99.90
21037;DHT22;10677;50.942;4.028;2023-06-22T11:48:31;19.30;99.90
21037;DHT22;10677;50.942;4.028;2023-06-22T11:50:57;19.30;99.90
21037;DHT22;10677;50.942;4.028;2023-06-22T11:53:25;19.30;99.90
21037;DHT22;10677;50.942;4.028;2023-06-22T11:55:51;19.30;99.90
21037;DHT22;10677;50.942;4.028;2023-06-22T11:58:20;19.10;99.90
21037;DHT22;10677;50.942;4.028;2023-06-22T12:00:46;19.10;99.90
21037;DHT22;10677;50.942;4.028;2023-06-22T12:03:12;18.90;99.90
21037;DHT22;10677;50.942;4.028;2023-06-22T12:05:38;18.90;99.90
21037;DHT22;10677;50.942;4.028;2023-06-22T12:08:04;18.80;99.90
21037;DHT22;10677;50.942;4.028;2023-06-22T12:10:30;18.90;99.90
21037;DHT22;10677;50.942;4.028;2023-06-22T12:12:57;18.90;99.90
21037;DHT22;10677;50.942;4.028;2023-06-22T12:15:25;18.90;99.90
21037;DHT22;10677;50.942;4.028;2023-06-22T12:17:50;19.00;99.90
21037;DHT22;10677;50.942;4.028;2023-06-22T12:20:16;19.00;99.90
21037;DHT22;10677;50.942;4.028;2023-06-22T12:22:43;19.00;99.90
21037;DHT22;10677;50.942;4.028;2023-06-22T12:25:09;19.00;99.90
21037;DHT22;10677;50.942;4.028;2023-06-22T12:27:36;19.10;99.90
21037;DHT22;10677;50.942;4.028;2023-06-22T12:30:03;19.00;99.90
21037;DHT22;10677;50.942;4.028;2023-06-22T12:32:29;19.10;99.90
21037;DHT22;10677;50.942;4.028;2023-06-22T12:34:56;18.90;99.90
21037;DHT22;10677;50.942;4.028;2023-06-22T12:37:22;18.80;99.90
21037;DHT22;10677;50.942;4.028;2023-06-22T12:39:51;19.00;99.90
21037;DHT22;10677;50.942;4.028;2023-06-22T12:42:16;18.80;99.90
21037;DHT22;10677;50.942;4.028;2023-06-22T12:44:43;18.70;99.90
21037;DHT22;10677;50.942;4.028;2023-06-22T12:47:09;18.60;99.90
21037;DHT22;10677;50.942;4.028;2023-06-22T12:49:35;18.60;99.90
21037;DHT22;10677;50.942;4.028;2023-06-22T12:52:02;18.50;99.90
21037;DHT22;10677;50.942;4.028;2023-06-22T12:54:27;18.50;99.90
21037;DHT22;10677;50.942;4.028;2023-06-22T12:56:55;18.40;99.90
21037;DHT22;10677;50.942;4.028;2023-06-22T12:59:20;18.30;99.90
21037;DHT22;10677;50.942;4.028;2023-06-22T13:01:46;18.30;99.90
21037;DHT22;10677;50.942;4.028;2023-06-22T13:04:12;18.20;99.90
21037;DHT22;10677;50.942;4.028;2023-06-22T13:06:43;18.20;99.90
21037;DHT22;10677;50.942;4.028;2023-06-22T13:09:13;18.30;99.90
21037;DHT22;10677;50.942;4.028;2023-06-22T13:11:38;18.30;99.90
21037;DHT22;10677;50.942;4.028;2023-06-22T13:14:04;18.30;99.90
21037;DHT22;10677;50.942;4.028;2023-06-22T13:16:30;18.40;99.90
21037;DHT22;10677;50.942;4.028;2023-06-22T13:18:55;18.40;99.90
21037;DHT22;10677;50.942;4.028;2023-06-22T13:21:21;18.40;99.90
21037;DHT22;10677;50.942;4.028;2023-06-22T13:23:47;18.40;99.90
21037;DHT22;10677;50.942;4.028;2023-06-22T13:26:13;18.40;99.90
21037;DHT22;10677;50.942;4.028;2023-06-22T13:28:38;18.30;99.90
21037;DHT22;10677;50.942;4.028;2023-06-22T13:31:04;18.30;99.90
21037;DHT22;10677;50.942;4.028;2023-06-22T13:33:29;18.20;99.90
21037;DHT22;10677;50.942;4.028;2023-06-22T13:35:55;18.20;99.90
21037;DHT22;10677;50.942;4.028;2023-06-22T13:38:21;18.30;99.90
21037;DHT22;10677;50.942;4.028;2023-06-22T13:40:48;18.30;99.90
21037;DHT22;10677;50.942;4.028;2023-06-22T13:43:13;18.40;99.90
21037;DHT22;10677;50.942;4.028;2023-06-22T13:45:40;18.40;99.90
21037;DHT22;10677;50.942;4.028;2023-06-22T13:48:06;18.30;99.90
21037;DHT22;10677;50.942;4.028;2023-06-22T13:50:31;18.20;99.90
21037;DHT22;10677;50.942;4.028;2023-06-22T13:52:57;18.30;99.90
21037;DHT22;10677;50.942;4.028;2023-06-22T13:55:23;18.30;99.90
21037;DHT22;10677;50.942;4.028;2023-06-22T13:57:49;18.50;99.90
21037;DHT22;10677;50.942;4.028;2023-06-22T14:00:17;18.50;99.90
21037;DHT22;10677;50.942;4.028;2023-06-22T14:02:42;18.40;99.90
21037;DHT22;10677;50.942;4.028;2023-06-22T14:05:08;18.40;99.90
21037;DHT22;10677;50.942;4.028;2023-06-22T14:07:34;18.30;99.90
21037;DHT22;10677;50.942;4.028;2023-06-22T14:10:00;18.30;99.90
21037;DHT22;10677;50.942;4.028;2023-06-22T14:12:26;18.30;99.90
21037;DHT22;10677;50.942;4.028;2023-06-22T14:14:52;18.20;99.90
21037;DHT22;10677;50.942;4.028;2023-06-22T14:17:18;18.30;99.90
21037;DHT22;10677;50.942;4.028;2023-06-22T14:19:49;18.30;99.90
21037;DHT22;10677;50.942;4.028;2023-06-22T14:22:15;18.30;99.90
21037;DHT22;10677;50.942;4.028;2023-06-22T14:24:41;18.30;99.90
21037;DHT22;10677;50.942;4.028;2023-06-22T14:27:06;18.40;99.90
21037;DHT22;10677;50.942;4.028;2023-06-22T14:29:34;18.30;99.90
21037;DHT22;10677;50.942;4.028;2023-06-22T14:32:00;18.40;99.90
21037;DHT22;10677;50.942;4.028;2023-06-22T14:34:25;18.40;99.90
21037;DHT22;10677;50.942;4.028;2023-06-22T14:36:51;18.40;99.90
21037;DHT22;10677;50.942;4.028;2023-06-22T14:39:17;18.40;99.90
21037;DHT22;10677;50.942;4.028;2023-06-22T14:41:42;18.40;99.90
21037;DHT22;10677;50.942;4.028;2023-06-22T14:44:08;18.40;99.90
21037;DHT22;10677;50.942;4.028;2023-06-22T14:46:33;18.50;99.90
21037;DHT22;10677;50.942;4.028;2023-06-22T14:48:59;18.50;99.90
21037;DHT22;10677;50.942;4.028;2023-06-22T14:51:25;18.50;99.90
21037;DHT22;10677;50.942;4.028;2023-06-22T14:53:50;18.50;99.90
21037;DHT22;10677;50.942;4.028;2023-06-22T14:56:16;18.50;99.90
21037;DHT22;10677;50.942;4.028;2023-06-22T14:58:42;18.50;99.90
21037;DHT22;10677;50.942;4.028;2023-06-22T15:01:11;18.50;99.90
21037;DHT22;10677;50.942;4.028;2023-06-22T15:03:37;18.50;99.90
21037;DHT22;10677;50.942;4.028;2023-06-22T15:06:03;18.50;99.90
21037;DHT22;10677;50.942;4.028;2023-06-22T15:08:29;18.50;99.90
21037;DHT22;10677;50.942;4.028;2023-06-22T15:10:57;18.50;99.90
21037;DHT22;10677;50.942;4.028;2023-06-22T15:13:23;18.60;99.90
21037;DHT22;10677;50.942;4.028;2023-06-22T15:15:50;18.60;99.90
21037;DHT22;10677;50.942;4.028;2023-06-22T15:18:16;18.70;99.90
21037;DHT22;10677;50.942;4.028;2023-06-22T15:20:42;18.80;99.90
21037;DHT22;10677;50.942;4.028;2023-06-22T15:23:11;18.70;99.90
21037;DHT22;10677;50.942;4.028;2023-06-22T15:25:37;18.80;99.90
21037;DHT22;10677;50.942;4.028;2023-06-22T15:28:02;18.80;99.90
21037;DHT22;10677;50.942;4.028;2023-06-22T15:30:28;18.90;99.90
21037;DHT22;10677;50.942;4.028;2023-06-22T15:32:54;18.90;99.90
21037;DHT22;10677;50.942;4.028;2023-06-22T15:35:20;18.80;99.90
21037;DHT22;10677;50.942;4.028;2023-06-22T15:37:46;18.80;99.90